sensor_id;sensor_type;location;lat;lon;timestamp;pressure;altitude;pressure_sealevel;temperature;humidity
37710;BME280;60223;34.854;-92.408;2023-11-21T00:00:11;99900.16;;;26.82;28.41
37710;BME280;60223;34.854;-92.408;2023-11-21T00:02:34;99909.18;;;27.15;28.39
37710;BME280;60223;34.854;-92.408;2023-11-21T00:05:01;99915.79;;;27.16;28.22
37710;BME280;60223;34.854;-92.408;2023-11-21T00:07:25;99917.43;;;26.83;28.27
37710;BME280;60223;34.854;-92.408;2023-11-21T00:09:56;99918.98;;;26.73;28.36
37710;BME280;60223;34.854;-92.408;2023-11-21T00:12:17;99926.64;;;26.73;28.37
37710;BME280;60223;34.854;-92.408;2023-11-21T00:14:44;99935.62;;;26.99;28.35
37710;BME280;60223;34.854;-92.408;2023-11-21T00:17:09;99941.10;;;26.82;28.53
37710;BME280;60223;34.854;-92.408;2023-11-21T00:19:34;99944.93;;;26.87;28.50
37710;BME280;60223;34.854;-92.408;2023-11-21T00:22:01;99946.31;;;26.78;28.60
37710;BME280;60223;34.854;-92.408;2023-11-21T00:24:25;99952.23;;;26.80;28.54
37710;BME280;60223;34.854;-92.408;2023-11-21T00:26:52;99961.37;;;26.71;28.61
37710;BME280;60223;34.854;-92.408;2023-11-21T00:29:18;99968.04;;;26.69;28.62
37710;BME280;60223;34.854;-92.408;2023-11-21T00:31:42;99970.59;;;26.68;28.62
37710;BME280;60223;34.854;-92.408;2023-11-21T00:34:08;99962.49;;;26.59;28.56
37710;BME280;60223;34.854;-92.408;2023-11-21T00:36:33;99967.09;;;26.56;28.44
37710;BME280;60223;34.854;-92.408;2023-11-21T00:39:00;99972.24;;;26.65;28.43
37710;BME280;60223;34.854;-92.408;2023-11-21T00:41:25;99978.75;;;26.69;28.14
37710;BME280;60223;34.854;-92.408;2023-11-21T00:43:51;99976.66;;;26.30;28.10
37710;BME280;60223;34.854;-92.408;2023-11-21T00:46:16;99975.83;;;26.73;27.67
37710;BME280;60223;34.854;-92.408;2023-11-21T00:48:42;99966.74;;;26.92;27.41
37710;BME280;60223;34.854;-92.408;2023-11-21T00:51:08;99968.08;;;26.84;27.39
37710;BME280;60223;34.854;-92.408;2023-11-21T00:53:33;99970.53;;;27.10;27.30
37710;BME280;60223;34.854;-92.408;2023-11-21T00:55:58;99959.34;;;27.08;27.06
37710;BME280;60223;34.854;-92.408;2023-11-21T00:58:25;99952.98;;;26.82;27.02
37710;BME280;60223;34.854;-92.408;2023-11-21T01:01:23;99968.60;;;27.56;27.64
37710;BME280;60223;34.854;-92.408;2023-11-21T01:03:18;99976.90;;;26.64;28.38
37710;BME280;60223;34.854;-92.408;2023-11-21T01:05:41;99982.21;;;27.00;28.36
37710;BME280;60223;34.854;-92.408;2023-11-21T01:08:07;99979.88;;;26.56;28.76
37710;BME280;60223;34.854;-92.408;2023-11-21T01:10:33;99980.53;;;26.74;29.11
37710;BME280;60223;34.854;-92.408;2023-11-21T01:12:58;99969.80;;;26.94;28.81
37710;BME280;60223;34.854;-92.408;2023-11-21T01:15:24;99957.84;;;27.05;28.61
37710;BME280;60223;34.854;-92.408;2023-11-21T01:39:41;99993.26;;;26.56;28.44
37710;BME280;60223;34.854;-92.408;2023-11-21T01:42:19;100008.54;;;26.72;28.33
37710;BME280;60223;34.854;-92.408;2023-11-21T01:44:31;100018.01;;;26.76;28.27
37710;BME280;60223;34.854;-92.408;2023-11-21T01:47:04;100019.90;;;26.92;28.12
37710;BME280;60223;34.854;-92.408;2023-11-21T01:49:24;100019.47;;;26.80;28.18
37710;BME280;60223;34.854;-92.408;2023-11-21T01:54:15;100015.28;;;26.44;27.91
37710;BME280;60223;34.854;-92.408;2023-11-21T01:56:42;100006.61;;;26.70;27.89
37710;BME280;60223;34.854;-92.408;2023-11-21T01:59:07;100003.37;;;26.74;27.74
37710;BME280;60223;34.854;-92.408;2023-11-21T02:01:33;99986.01;;;26.56;27.63
37710;BME280;60223;34.854;-92.408;2023-11-21T02:04:04;99961.48;;;26.67;27.68
37710;BME280;60223;34.854;-92.408;2023-11-21T02:06:24;99954.67;;;26.88;27.50
37710;BME280;60223;34.854;-92.408;2023-11-21T02:08:55;99955.41;;;26.81;27.59
37710;BME280;60223;34.854;-92.408;2023-11-21T02:11:12;99945.72;;;26.99;27.51
37710;BME280;60223;34.854;-92.408;2023-11-21T02:13:42;99952.15;;;27.01;27.52
37710;BME280;60223;34.854;-92.408;2023-11-21T02:16:08;99973.92;;;27.27;27.32
37710;BME280;60223;34.854;-92.408;2023-11-21T02:18:32;99990.17;;;27.51;28.13
37710;BME280;60223;34.854;-92.408;2023-11-21T02:21:07;99995.80;;;26.99;29.07
37710;BME280;60223;34.854;-92.408;2023-11-21T02:23:24;99999.92;;;26.80;29.22
37710;BME280;60223;34.854;-92.408;2023-11-21T02:25:50;99983.52;;;27.07;29.15
37710;BME280;60223;34.854;-92.408;2023-11-21T02:28:15;99974.33;;;26.84;29.11
37710;BME280;60223;34.854;-92.408;2023-11-21T02:30:41;99977.54;;;27.30;29.40
37710;BME280;60223;34.854;-92.408;2023-11-21T02:33:06;99995.58;;;27.93;28.93
37710;BME280;60223;34.854;-92.408;2023-11-21T02:35:30;99994.10;;;26.84;29.65
37710;BME280;60223;34.854;-92.408;2023-11-21T02:37:56;99969.24;;;27.14;29.38
37710;BME280;60223;34.854;-92.408;2023-11-21T02:40:22;99970.28;;;27.34;29.37
37710;BME280;60223;34.854;-92.408;2023-11-21T02:42:49;99981.99;;;27.49;29.35
37710;BME280;60223;34.854;-92.408;2023-11-21T02:45:15;100003.07;;;27.32;29.31
37710;BME280;60223;34.854;-92.408;2023-11-21T02:47:40;100036.65;;;27.39;29.22
37710;BME280;60223;34.854;-92.408;2023-11-21T02:50:06;100054.49;;;27.72;29.14
37710;BME280;60223;34.854;-92.408;2023-11-21T02:52:31;100047.60;;;27.41;29.24
37710;BME280;60223;34.854;-92.408;2023-11-21T02:54:59;100049.44;;;27.47;29.22
37710;BME280;60223;34.854;-92.408;2023-11-21T02:57:22;100039.17;;;27.31;29.24
37710;BME280;60223;34.854;-92.408;2023-11-21T02:59:56;100037.35;;;27.56;29.15
37710;BME280;60223;34.854;-92.408;2023-11-21T03:02:14;100039.18;;;27.80;29.09
37710;BME280;60223;34.854;-92.408;2023-11-21T03:04:39;100036.52;;;28.34;28.69
37710;BME280;60223;34.854;-92.408;2023-11-21T03:07:11;100046.46;;;27.69;29.07
37710;BME280;60223;34.854;-92.408;2023-11-21T03:09:30;100055.64;;;27.78;29.10
37710;BME280;60223;34.854;-92.408;2023-11-21T03:11:57;100059.86;;;27.46;29.29
37710;BME280;60223;34.854;-92.408;2023-11-21T03:14:23;100059.61;;;27.56;29.52
37710;BME280;60223;34.854;-92.408;2023-11-21T03:16:48;100066.84;;;27.00;29.89
37710;BME280;60223;34.854;-92.408;2023-11-21T03:19:14;100074.12;;;27.34;29.53
37710;BME280;60223;34.854;-92.408;2023-11-21T03:41:02;100030.38;;;27.44;29.44
37710;BME280;60223;34.854;-92.408;2023-11-21T03:43:30;100031.52;;;27.71;29.38
37710;BME280;60223;34.854;-92.408;2023-11-21T03:46:14;100028.18;;;27.77;29.31
37710;BME280;60223;34.854;-92.408;2023-11-21T03:48:58;100027.12;;;27.39;29.45
37710;BME280;60223;34.854;-92.408;2023-11-21T03:50:55;100020.48;;;27.38;29.41
37710;BME280;60223;34.854;-92.408;2023-11-21T03:53:09;100011.65;;;27.55;29.47
37710;BME280;60223;34.854;-92.408;2023-11-21T03:55:37;100006.27;;;27.86;29.26
37710;BME280;60223;34.854;-92.408;2023-11-21T03:58:02;100011.61;;;27.50;29.32
37710;BME280;60223;34.854;-92.408;2023-11-21T04:00:37;100014.72;;;27.82;29.60
37710;BME280;60223;34.854;-92.408;2023-11-21T04:03:30;100018.06;;;26.78;30.34
37710;BME280;60223;34.854;-92.408;2023-11-21T04:05:20;100012.26;;;27.49;29.75
37710;BME280;60223;34.854;-92.408;2023-11-21T04:07:42;100019.05;;;27.41;30.04
37710;BME280;60223;34.854;-92.408;2023-11-21T04:10:12;100016.77;;;27.29;29.98
37710;BME280;60223;34.854;-92.408;2023-11-21T04:12:52;100016.53;;;27.52;29.81
37710;BME280;60223;34.854;-92.408;2023-11-21T04:15:01;100017.60;;;27.39;29.44
37710;BME280;60223;34.854;-92.408;2023-11-21T04:17:29;100023.30;;;27.62;29.40
37710;BME280;60223;34.854;-92.408;2023-11-21T04:22:18;100038.43;;;27.76;29.53
37710;BME280;60223;34.854;-92.408;2023-11-21T04:24:45;100037.22;;;27.29;29.54
37710;BME280;60223;34.854;-92.408;2023-11-21T04:27:09;100044.17;;;27.41;29.72
37710;BME280;60223;34.854;-92.408;2023-11-21T04:29:36;100056.08;;;27.42;29.72
37710;BME280;60223;34.854;-92.408;2023-11-21T04:32:10;100060.26;;;27.03;29.88
37710;BME280;60223;34.854;-92.408;2023-11-21T04:34:27;100065.76;;;27.01;30.40
37710;BME280;60223;34.854;-92.408;2023-11-21T04:36:57;100070.23;;;26.96;29.70
37710;BME280;60223;34.854;-92.408;2023-11-21T04:44:10;100077.77;;;26.44;30.12
37710;BME280;60223;34.854;-92.408;2023-11-21T04:49:01;100080.61;;;26.53;30.10
37710;BME280;60223;34.854;-92.408;2023-11-21T04:53:53;100077.10;;;26.95;30.15
37710;BME280;60223;34.854;-92.408;2023-11-21T04:56:19;100073.71;;;26.69;30.21
37710;BME280;60223;34.854;-92.408;2023-11-21T04:58:45;100077.42;;;26.58;30.34
37710;BME280;60223;34.854;-92.408;2023-11-21T05:01:18;100084.60;;;26.37;30.29
37710;BME280;60223;34.854;-92.408;2023-11-21T05:03:41;100094.24;;;27.45;29.63
37710;BME280;60223;34.854;-92.408;2023-11-21T05:06:05;100092.00;;;27.00;30.07
37710;BME280;60223;34.854;-92.408;2023-11-21T05:10:57;100104.04;;;27.22;29.98
37710;BME280;60223;34.854;-92.408;2023-11-21T05:13:22;100108.87;;;26.92;30.04
37710;BME280;60223;34.854;-92.408;2023-11-21T05:15:49;100112.47;;;27.26;29.80
37710;BME280;60223;34.854;-92.408;2023-11-21T05:18:11;100112.98;;;26.92;29.86
37710;BME280;60223;34.854;-92.408;2023-11-21T05:20:41;100114.29;;;26.54;29.98
37710;BME280;60223;34.854;-92.408;2023-11-21T05:23:00;100118.73;;;26.50;30.04
37710;BME280;60223;34.854;-92.408;2023-11-21T05:25:28;100116.41;;;26.97;30.05
37710;BME280;60223;34.854;-92.408;2023-11-21T05:27:52;100117.37;;;26.99;30.01
37710;BME280;60223;34.854;-92.408;2023-11-21T05:30:25;100119.00;;;26.96;30.03
37710;BME280;60223;34.854;-92.408;2023-11-21T05:32:43;100121.26;;;27.08;29.86
37710;BME280;60223;34.854;-92.408;2023-11-21T05:35:09;100122.50;;;27.05;29.63
37710;BME280;60223;34.854;-92.408;2023-11-21T05:37:40;100122.94;;;27.17;29.53
37710;BME280;60223;34.854;-92.408;2023-11-21T05:40:00;100114.60;;;27.24;29.56
37710;BME280;60223;34.854;-92.408;2023-11-21T05:42:24;100110.85;;;27.90;29.13
37710;BME280;60223;34.854;-92.408;2023-11-21T05:44:50;100116.08;;;27.83;29.21
37710;BME280;60223;34.854;-92.408;2023-11-21T05:47:30;100122.93;;;27.79;29.10
37710;BME280;60223;34.854;-92.408;2023-11-21T05:49:52;100114.76;;;27.79;29.22
37710;BME280;60223;34.854;-92.408;2023-11-21T05:52:07;100119.75;;;27.57;29.18
37710;BME280;60223;34.854;-92.408;2023-11-21T05:54:41;100122.21;;;27.87;29.19
37710;BME280;60223;34.854;-92.408;2023-11-21T05:56:59;100124.20;;;27.98;29.19
37710;BME280;60223;34.854;-92.408;2023-11-21T05:59:25;100123.10;;;27.87;29.04
37710;BME280;60223;34.854;-92.408;2023-11-21T06:01:53;100120.15;;;27.83;29.14
37710;BME280;60223;34.854;-92.408;2023-11-21T06:04:17;100122.51;;;27.69;29.17
37710;BME280;60223;34.854;-92.408;2023-11-21T06:06:42;100126.70;;;27.81;29.38
37710;BME280;60223;34.854;-92.408;2023-11-21T06:09:08;100126.87;;;27.57;29.42
37710;BME280;60223;34.854;-92.408;2023-11-21T06:11:34;100130.28;;;27.94;29.31
37710;BME280;60223;34.854;-92.408;2023-11-21T06:13:59;100135.53;;;27.78;29.28
37710;BME280;60223;34.854;-92.408;2023-11-21T06:16:26;100134.22;;;27.51;29.69
37710;BME280;60223;34.854;-92.408;2023-11-21T06:18:51;100131.81;;;27.50;29.50
37710;BME280;60223;34.854;-92.408;2023-11-21T06:21:28;100131.51;;;27.49;29.35
37710;BME280;60223;34.854;-92.408;2023-11-21T06:23:43;100134.56;;;27.47;29.37
37710;BME280;60223;34.854;-92.408;2023-11-21T06:26:05;100131.17;;;27.93;29.35
37710;BME280;60223;34.854;-92.408;2023-11-21T06:28:33;100127.43;;;27.96;29.37
37710;BME280;60223;34.854;-92.408;2023-11-21T06:31:07;100130.38;;;27.43;29.42
37710;BME280;60223;34.854;-92.408;2023-11-21T06:33:25;100133.71;;;27.23;29.38
37710;BME280;60223;34.854;-92.408;2023-11-21T06:35:51;100134.80;;;27.38;29.45
37710;BME280;60223;34.854;-92.408;2023-11-21T06:38:15;100135.94;;;27.36;29.46
37710;BME280;60223;34.854;-92.408;2023-11-21T06:40:42;100135.49;;;27.49;29.52
37710;BME280;60223;34.854;-92.408;2023-11-21T06:43:12;100129.93;;;27.27;29.50
37710;BME280;60223;34.854;-92.408;2023-11-21T06:45:39;100132.32;;;27.48;29.50
37710;BME280;60223;34.854;-92.408;2023-11-21T06:47:59;100133.47;;;27.18;29.51
37710;BME280;60223;34.854;-92.408;2023-11-21T06:50:25;100138.70;;;27.33;29.57
37710;BME280;60223;34.854;-92.408;2023-11-21T06:52:56;100140.15;;;26.99;29.68
37710;BME280;60223;34.854;-92.408;2023-11-21T06:55:13;100139.13;;;26.93;29.69
37710;BME280;60223;34.854;-92.408;2023-11-21T06:57:40;100136.79;;;26.84;29.77
37710;BME280;60223;34.854;-92.408;2023-11-21T07:00:07;100137.95;;;26.77;29.83
37710;BME280;60223;34.854;-92.408;2023-11-21T07:02:32;100144.58;;;27.00;29.79
37710;BME280;60223;34.854;-92.408;2023-11-21T07:04:58;100152.06;;;27.28;29.76
37710;BME280;60223;34.854;-92.408;2023-11-21T07:07:23;100153.75;;;27.00;29.74
37710;BME280;60223;34.854;-92.408;2023-11-21T07:09:57;100160.55;;;27.80;28.81
37710;BME280;60223;34.854;-92.408;2023-11-21T07:12:16;100156.53;;;27.06;29.57
37710;BME280;60223;34.854;-92.408;2023-11-21T07:14:42;100152.72;;;27.06;29.55
37710;BME280;60223;34.854;-92.408;2023-11-21T07:17:15;100156.44;;;27.31;29.53
37710;BME280;60223;34.854;-92.408;2023-11-21T07:19:32;100157.84;;;26.95;29.65
37710;BME280;60223;34.854;-92.408;2023-11-21T07:21:58;100159.97;;;27.35;29.67
37710;BME280;60223;34.854;-92.408;2023-11-21T07:24:24;100160.79;;;26.96;29.51
37710;BME280;60223;34.854;-92.408;2023-11-21T07:26:49;100160.91;;;27.18;29.36
37710;BME280;60223;34.854;-92.408;2023-11-21T07:29:14;100165.58;;;26.91;29.35
37710;BME280;60223;34.854;-92.408;2023-11-21T07:31:40;100163.87;;;26.89;29.34
37710;BME280;60223;34.854;-92.408;2023-11-21T07:34:07;100167.51;;;26.86;29.41
37710;BME280;60223;34.854;-92.408;2023-11-21T07:36:32;100167.64;;;27.10;29.41
37710;BME280;60223;34.854;-92.408;2023-11-21T07:38:57;100167.45;;;26.80;29.44
37710;BME280;60223;34.854;-92.408;2023-11-21T07:43:49;100176.58;;;26.70;29.50
37710;BME280;60223;34.854;-92.408;2023-11-21T07:48:39;100180.58;;;26.67;29.49
37710;BME280;60223;34.854;-92.408;2023-11-21T07:51:04;100183.76;;;26.91;29.49
37710;BME280;60223;34.854;-92.408;2023-11-21T07:53:31;100186.19;;;27.17;29.47
37710;BME280;60223;34.854;-92.408;2023-11-21T07:55:58;100188.58;;;26.91;29.54
37710;BME280;60223;34.854;-92.408;2023-11-21T07:58:22;100186.23;;;26.89;29.52
37710;BME280;60223;34.854;-92.408;2023-11-21T08:00:49;100185.81;;;26.66;29.50
37710;BME280;60223;34.854;-92.408;2023-11-21T08:03:14;100187.65;;;27.16;29.49
37710;BME280;60223;34.854;-92.408;2023-11-21T08:05:38;100190.34;;;26.95;29.42
37710;BME280;60223;34.854;-92.408;2023-11-21T08:08:11;100192.70;;;27.18;28.97
37710;BME280;60223;34.854;-92.408;2023-11-21T08:10:31;100194.28;;;27.68;28.90
37710;BME280;60223;34.854;-92.408;2023-11-21T08:12:57;100198.44;;;28.04;28.26
37710;BME280;60223;34.854;-92.408;2023-11-21T08:17:56;100200.16;;;28.08;28.63
37710;BME280;60223;34.854;-92.408;2023-11-21T08:20:15;100203.77;;;27.31;29.25
37710;BME280;60223;34.854;-92.408;2023-11-21T08:22:38;100206.46;;;27.59;29.28
37710;BME280;60223;34.854;-92.408;2023-11-21T08:25:29;100205.35;;;27.36;29.30
37710;BME280;60223;34.854;-92.408;2023-11-21T08:27:30;100207.83;;;27.24;29.25
37710;BME280;60223;34.854;-92.408;2023-11-21T08:29:57;100210.36;;;27.43;29.22
37710;BME280;60223;34.854;-92.408;2023-11-21T08:32:22;100215.48;;;27.20;29.25
37710;BME280;60223;34.854;-92.408;2023-11-21T08:34:48;100215.88;;;27.14;29.30
37710;BME280;60223;34.854;-92.408;2023-11-21T08:37:15;100217.61;;;27.09;29.31
37710;BME280;60223;34.854;-92.408;2023-11-21T08:39:41;100222.34;;;27.32;29.33
37710;BME280;60223;34.854;-92.408;2023-11-21T08:42:03;100224.06;;;27.03;29.34
37710;BME280;60223;34.854;-92.408;2023-11-21T08:44:37;100227.88;;;27.03;29.35
37710;BME280;60223;34.854;-92.408;2023-11-21T08:46:57;100228.47;;;27.30;29.42
37710;BME280;60223;34.854;-92.408;2023-11-21T08:49:25;100234.06;;;27.21;29.43
37710;BME280;60223;34.854;-92.408;2023-11-21T08:51:48;100237.72;;;27.20;29.49
37710;BME280;60223;34.854;-92.408;2023-11-21T08:54:11;100239.65;;;27.16;29.46
37710;BME280;60223;34.854;-92.408;2023-11-21T08:56:39;100239.14;;;27.10;29.46
37710;BME280;60223;34.854;-92.408;2023-11-21T08:59:06;100242.52;;;27.03;29.45
37710;BME280;60223;34.854;-92.408;2023-11-21T09:01:31;100241.03;;;27.20;29.48
37710;BME280;60223;34.854;-92.408;2023-11-21T09:03:57;100241.03;;;26.71;29.45
37710;BME280;60223;34.854;-92.408;2023-11-21T09:06:28;100243.70;;;26.96;29.42
37710;BME280;60223;34.854;-92.408;2023-11-21T09:08:48;100245.89;;;27.16;29.41
37710;BME280;60223;34.854;-92.408;2023-11-21T09:11:12;100246.14;;;26.70;29.35
37710;BME280;60223;34.854;-92.408;2023-11-21T09:13:39;100248.56;;;26.96;29.29
37710;BME280;60223;34.854;-92.408;2023-11-21T09:16:03;100253.68;;;27.89;28.56
37710;BME280;60223;34.854;-92.408;2023-11-21T09:18:30;100258.50;;;27.16;29.23
37710;BME280;60223;34.854;-92.408;2023-11-21T09:20:56;100260.28;;;26.71;29.36
37710;BME280;60223;34.854;-92.408;2023-11-21T09:23:30;100258.74;;;27.24;29.27
37710;BME280;60223;34.854;-92.408;2023-11-21T09:25:47;100262.74;;;27.35;29.26
37710;BME280;60223;34.854;-92.408;2023-11-21T09:28:19;100260.58;;;27.22;29.31
37710;BME280;60223;34.854;-92.408;2023-11-21T09:30:45;100273.45;;;27.17;29.16
37710;BME280;60223;34.854;-92.408;2023-11-21T09:33:01;100275.22;;;27.12;29.11
37710;BME280;60223;34.854;-92.408;2023-11-21T09:35:35;100273.41;;;27.07;29.09
37710;BME280;60223;34.854;-92.408;2023-11-21T09:37:56;100270.89;;;27.31;29.08
37710;BME280;60223;34.854;-92.408;2023-11-21T09:40:22;100272.42;;;27.05;29.12
37710;BME280;60223;34.854;-92.408;2023-11-21T09:42:57;100269.62;;;27.11;29.08
37710;BME280;60223;34.854;-92.408;2023-11-21T09:45:32;100272.25;;;27.27;29.11
37710;BME280;60223;34.854;-92.408;2023-11-21T09:47:50;100272.68;;;27.03;29.09
37710;BME280;60223;34.854;-92.408;2023-11-21T09:50:05;100277.34;;;27.04;29.05
37710;BME280;60223;34.854;-92.408;2023-11-21T09:52:30;100281.00;;;26.93;29.10
37710;BME280;60223;34.854;-92.408;2023-11-21T09:54:56;100278.11;;;27.20;29.07
37710;BME280;60223;34.854;-92.408;2023-11-21T09:57:18;100283.01;;;26.98;29.24
37710;BME280;60223;34.854;-92.408;2023-11-21T09:59:54;100286.06;;;26.66;29.44
37710;BME280;60223;34.854;-92.408;2023-11-21T10:02:12;100288.36;;;26.88;29.38
37710;BME280;60223;34.854;-92.408;2023-11-21T10:04:47;100290.31;;;26.87;29.35
37710;BME280;60223;34.854;-92.408;2023-11-21T10:07:13;100294.72;;;27.86;28.59
37710;BME280;60223;34.854;-92.408;2023-11-21T10:09:29;100293.24;;;27.76;28.75
37710;BME280;60223;34.854;-92.408;2023-11-21T10:11:55;100295.79;;;27.82;28.70
37710;BME280;60223;34.854;-92.408;2023-11-21T10:14:20;100301.95;;;27.76;28.57
37710;BME280;60223;34.854;-92.408;2023-11-21T10:16:46;100303.12;;;27.78;28.66
37710;BME280;60223;34.854;-92.408;2023-11-21T10:19:13;100304.71;;;27.73;28.73
37710;BME280;60223;34.854;-92.408;2023-11-21T10:21:45;100308.93;;;27.72;28.85
37710;BME280;60223;34.854;-92.408;2023-11-21T10:24:03;100310.43;;;27.97;28.47
37710;BME280;60223;34.854;-92.408;2023-11-21T10:26:30;100307.70;;;27.64;29.06
37710;BME280;60223;34.854;-92.408;2023-11-21T10:29:06;100317.80;;;27.45;29.16
37710;BME280;60223;34.854;-92.408;2023-11-21T10:31:20;100322.64;;;27.49;29.26
37710;BME280;60223;34.854;-92.408;2023-11-21T10:33:51;100323.20;;;27.68;29.31
37710;BME280;60223;34.854;-92.408;2023-11-21T10:36:26;100325.21;;;27.32;29.16
37710;BME280;60223;34.854;-92.408;2023-11-21T10:38:42;100323.49;;;27.26;29.12
37710;BME280;60223;34.854;-92.408;2023-11-21T10:41:11;100325.81;;;27.49;29.13
37710;BME280;60223;34.854;-92.408;2023-11-21T10:43:29;100328.37;;;27.25;29.17
37710;BME280;60223;34.854;-92.408;2023-11-21T10:45:56;100328.07;;;27.44;29.16
37710;BME280;60223;34.854;-92.408;2023-11-21T10:48:20;100335.27;;;27.20;29.19
37710;BME280;60223;34.854;-92.408;2023-11-21T10:50:46;100337.11;;;27.40;29.23
37710;BME280;60223;34.854;-92.408;2023-11-21T10:53:11;100344.13;;;27.15;29.21
37710;BME280;60223;34.854;-92.408;2023-11-21T10:55:37;100340.59;;;27.33;29.20
37710;BME280;60223;34.854;-92.408;2023-11-21T10:58:01;100345.83;;;27.06;29.22
37710;BME280;60223;34.854;-92.408;2023-11-21T11:00:29;100346.80;;;27.01;29.23
37710;BME280;60223;34.854;-92.408;2023-11-21T11:02:55;100349.32;;;27.00;29.22
37710;BME280;60223;34.854;-92.408;2023-11-21T11:05:22;100355.60;;;27.14;29.32
37710;BME280;60223;34.854;-92.408;2023-11-21T11:07:46;100356.74;;;27.11;29.31
37710;BME280;60223;34.854;-92.408;2023-11-21T11:10:11;100359.41;;;27.09;29.34
37710;BME280;60223;34.854;-92.408;2023-11-21T11:12:36;100360.22;;;27.62;28.91
37710;BME280;60223;34.854;-92.408;2023-11-21T11:15:11;100362.12;;;27.07;29.14
37710;BME280;60223;34.854;-92.408;2023-11-21T11:17:26;100365.16;;;26.99;29.33
37710;BME280;60223;34.854;-92.408;2023-11-21T11:19:54;100366.89;;;26.85;29.07
37710;BME280;60223;34.854;-92.408;2023-11-21T11:22:28;100374.41;;;27.02;29.14
37710;BME280;60223;34.854;-92.408;2023-11-21T11:25:01;100374.69;;;27.11;29.32
37710;BME280;60223;34.854;-92.408;2023-11-21T11:27:30;100372.88;;;28.34;28.30
37710;BME280;60223;34.854;-92.408;2023-11-21T11:29:40;100375.67;;;27.52;29.18
37710;BME280;60223;34.854;-92.408;2023-11-21T11:32:09;100378.14;;;27.04;29.33
37710;BME280;60223;34.854;-92.408;2023-11-21T11:34:31;100379.11;;;26.83;29.22
37710;BME280;60223;34.854;-92.408;2023-11-21T11:37:00;100380.76;;;27.29;28.97
37710;BME280;60223;34.854;-92.408;2023-11-21T11:39:30;100386.79;;;27.09;29.18
37710;BME280;60223;34.854;-92.408;2023-11-21T11:41:44;100387.44;;;26.82;29.20
37710;BME280;60223;34.854;-92.408;2023-11-21T11:46:43;100393.26;;;27.30;29.26
37710;BME280;60223;34.854;-92.408;2023-11-21T11:49:10;100386.72;;;27.26;29.10
37710;BME280;60223;34.854;-92.408;2023-11-21T11:51:27;100394.59;;;26.99;28.96
37710;BME280;60223;34.854;-92.408;2023-11-21T11:53:58;100397.85;;;27.12;28.18
37710;BME280;60223;34.854;-92.408;2023-11-21T11:56:26;100395.44;;;26.78;28.64
37710;BME280;60223;34.854;-92.408;2023-11-21T11:58:51;100398.32;;;26.87;28.67
37710;BME280;60223;34.854;-92.408;2023-11-21T12:01:11;100405.54;;;26.98;28.38
37710;BME280;60223;34.854;-92.408;2023-11-21T12:03:42;100407.07;;;27.95;27.78
37710;BME280;60223;34.854;-92.408;2023-11-21T12:06:01;100414.11;;;28.44;27.27
37710;BME280;60223;34.854;-92.408;2023-11-21T12:08:28;100424.49;;;28.11;27.98
37710;BME280;60223;34.854;-92.408;2023-11-21T12:10:55;100428.07;;;27.91;27.96
37710;BME280;60223;34.854;-92.408;2023-11-21T12:13:16;100435.72;;;28.40;27.59
37710;BME280;60223;34.854;-92.408;2023-11-21T12:15:44;100434.65;;;28.16;27.59
37710;BME280;60223;34.854;-92.408;2023-11-21T12:18:15;100439.47;;;27.80;27.67
37710;BME280;60223;34.854;-92.408;2023-11-21T12:20:36;100443.32;;;28.03;27.80
37710;BME280;60223;34.854;-92.408;2023-11-21T12:23:01;100449.09;;;28.09;27.96
37710;BME280;60223;34.854;-92.408;2023-11-21T12:25:27;100454.65;;;27.58;28.45
37710;BME280;60223;34.854;-92.408;2023-11-21T12:27:54;100452.65;;;27.42;29.04
37710;BME280;60223;34.854;-92.408;2023-11-21T12:30:17;100451.26;;;27.86;27.98
37710;BME280;60223;34.854;-92.408;2023-11-21T12:32:45;100448.71;;;27.92;27.66
37710;BME280;60223;34.854;-92.408;2023-11-21T12:35:09;100453.83;;;28.13;27.56
37710;BME280;60223;34.854;-92.408;2023-11-21T12:37:35;100456.07;;;27.95;27.49
37710;BME280;60223;34.854;-92.408;2023-11-21T12:40:00;100460.23;;;28.27;27.18
37710;BME280;60223;34.854;-92.408;2023-11-21T12:42:32;100464.95;;;28.12;26.99
37710;BME280;60223;34.854;-92.408;2023-11-21T12:47:20;100464.55;;;28.35;26.89
37710;BME280;60223;34.854;-92.408;2023-11-21T12:49:43;100468.32;;;28.15;26.85
37710;BME280;60223;34.854;-92.408;2023-11-21T12:52:07;100472.11;;;28.22;26.88
37710;BME280;60223;34.854;-92.408;2023-11-21T12:54:33;100472.74;;;28.17;27.13
37710;BME280;60223;34.854;-92.408;2023-11-21T12:57:00;100481.60;;;28.00;27.39
37710;BME280;60223;34.854;-92.408;2023-11-21T12:59:26;100490.49;;;28.07;27.44
37710;BME280;60223;34.854;-92.408;2023-11-21T13:01:52;100498.32;;;27.91;28.03
37710;BME280;60223;34.854;-92.408;2023-11-21T13:04:15;100500.02;;;28.02;28.44
37710;BME280;60223;34.854;-92.408;2023-11-21T13:06:41;100506.79;;;27.81;28.84
37710;BME280;60223;34.854;-92.408;2023-11-21T13:09:06;100510.59;;;27.97;28.87
37710;BME280;60223;34.854;-92.408;2023-11-21T13:11:34;100515.38;;;28.13;29.04
37710;BME280;60223;34.854;-92.408;2023-11-21T13:13:58;100520.61;;;27.73;29.51
37710;BME280;60223;34.854;-92.408;2023-11-21T13:16:26;100526.52;;;28.03;29.36
37710;BME280;60223;34.854;-92.408;2023-11-21T13:19:02;100529.76;;;28.06;29.70
37710;BME280;60223;34.854;-92.408;2023-11-21T13:21:16;100532.89;;;26.89;30.06
37710;BME280;60223;34.854;-92.408;2023-11-21T13:23:47;100537.26;;;28.03;29.33
37710;BME280;60223;34.854;-92.408;2023-11-21T13:26:08;100542.42;;;28.05;29.18
37710;BME280;60223;34.854;-92.408;2023-11-21T13:28:34;100538.12;;;27.67;29.51
37710;BME280;60223;34.854;-92.408;2023-11-21T13:30:58;100541.18;;;28.06;29.44